createdAt,value
2018-03-04T00:01:10.953Z,3.97
2018-03-04T00:03:40.080Z,3.83
2018-03-04T00:06:09.178Z,3.99
2018-03-04T00:08:38.277Z,4.15
2018-03-04T00:11:07.384Z,4.08
2018-03-04T00:13:36.480Z,4.23
2018-03-04T00:16:05.616Z,4.03
2018-03-04T00:18:34.735Z,3.93
2018-03-04T00:21:03.840Z,3.86
2018-03-04T00:23:33.732Z,3.77
2018-03-04T00:26:03.781Z,3.72
2018-03-04T00:28:32.912Z,3.64
2018-03-04T00:31:02.022Z,3.62
2018-03-04T00:33:31.904Z,3.58
2018-03-04T00:36:00.988Z,3.58
2018-03-04T00:38:30.108Z,3.62
2018-03-04T00:40:59.197Z,3.64
2018-03-04T00:43:28.316Z,3.66
2018-03-04T00:45:57.423Z,3.66
2018-03-04T00:48:26.518Z,3.73
2018-03-04T00:50:56.382Z,3.68
2018-03-04T00:53:25.556Z,3.65
2018-03-04T00:55:54.605Z,3.70
2018-03-04T00:58:23.739Z,3.68
2018-03-04T01:00:53.585Z,3.68
2018-03-04T01:03:22.681Z,3.70
2018-03-04T01:05:51.795Z,3.69
2018-03-04T01:08:20.887Z,3.69
2018-03-04T01:10:50.028Z,3.65
2018-03-04T01:13:19.878Z,3.62
2018-03-04T01:15:49.235Z,3.59
2018-03-04T01:18:19.100Z,3.59
2018-03-04T01:20:48.188Z,3.70
2018-03-04T01:23:17.310Z,3.57
2018-03-04T01:25:46.417Z,3.63
2018-03-04T01:28:15.534Z,3.76
2018-03-04T01:30:45.400Z,3.71
2018-03-04T01:33:15.300Z,3.55
2018-03-04T01:35:44.395Z,3.58
2018-03-04T01:38:13.488Z,3.47
2018-03-04T01:40:42.602Z,3.50
2018-03-04T01:43:11.688Z,3.36
2018-03-04T01:45:40.785Z,3.36
2018-03-04T01:48:09.921Z,3.38
2018-03-04T01:50:39.021Z,3.36
2018-03-04T01:53:08.898Z,3.33
2018-03-04T01:55:37.996Z,3.36
2018-03-04T01:58:07.107Z,3.41
2018-03-04T02:00:36.192Z,3.34
2018-03-04T02:03:05.313Z,3.32
2018-03-04T02:05:34.415Z,3.29
2018-03-04T02:08:03.497Z,3.24
2018-03-04T02:10:32.610Z,3.35
2018-03-04T02:13:01.702Z,3.53
2018-03-04T02:15:30.818Z,3.59
2018-03-04T02:18:00.674Z,3.50
2018-03-04T02:20:29.812Z,3.44
2018-03-04T02:22:58.874Z,3.47
2018-03-04T02:25:27.964Z,3.40
2018-03-04T02:27:57.066Z,3.38
2018-03-04T02:30:26.952Z,3.36
2018-03-04T02:32:56.049Z,3.36
2018-03-04T02:35:25.138Z,3.35
2018-03-04T02:37:54.234Z,3.33
2018-03-04T02:40:23.343Z,3.36
2018-03-04T02:42:52.451Z,3.36
2018-03-04T02:45:21.565Z,3.44
2018-03-04T02:47:51.411Z,3.46
2018-03-04T02:50:21.293Z,3.47
2018-03-04T02:52:50.370Z,3.50
2018-03-04T02:55:19.475Z,3.47
2018-03-04T02:57:48.631Z,3.49
2018-03-04T03:00:17.719Z,3.50
2018-03-04T03:02:47.578Z,3.50
2018-03-04T03:05:16.724Z,3.53
2018-03-04T03:07:46.571Z,3.54
2018-03-04T03:10:15.662Z,3.51
2018-03-04T03:12:44.770Z,3.52
2018-03-04T03:15:13.860Z,3.45
2018-03-04T03:17:42.961Z,3.42
2018-03-04T03:20:12.051Z,3.40
2018-03-04T03:22:41.182Z,3.29
2018-03-04T03:25:10.273Z,3.25
2018-03-04T03:27:39.405Z,3.16
2018-03-04T03:30:09.282Z,3.20
2018-03-04T03:32:38.376Z,3.16
2018-03-04T03:35:07.463Z,3.08
2018-03-04T03:37:36.577Z,2.97
2018-03-04T03:40:06.430Z,2.87
2018-03-04T03:42:36.318Z,2.85
2018-03-04T03:45:05.421Z,2.81
2018-03-04T03:47:34.507Z,2.81
2018-03-04T03:50:03.618Z,2.81
2018-03-04T03:52:34.147Z,2.81
2018-03-04T03:55:04.036Z,2.74
2018-03-04T03:57:33.111Z,2.89
2018-03-04T04:00:02.996Z,2.83
2018-03-04T04:02:32.859Z,2.79
2018-03-04T04:05:03.283Z,2.91
2018-03-04T04:07:32.418Z,3.06
2018-03-04T04:10:02.279Z,2.87
2018-03-04T04:12:31.386Z,2.87
2018-03-04T04:15:00.476Z,2.76
2018-03-04T04:17:29.608Z,2.71
2018-03-04T04:19:59.451Z,2.72
2018-03-04T04:22:28.543Z,2.76
2018-03-04T04:24:57.654Z,2.63
2018-03-04T04:27:26.757Z,2.58
2018-03-04T04:29:55.853Z,2.60
2018-03-04T04:32:25.725Z,2.61
2018-03-04T04:34:55.602Z,2.48
2018-03-04T04:37:24.701Z,2.44
2018-03-04T04:39:53.806Z,2.37
2018-03-04T04:42:22.893Z,2.38
2018-03-04T04:44:52.010Z,2.50
2018-03-04T04:47:21.101Z,2.51
2018-03-04T04:49:50.207Z,2.59
2018-03-04T04:52:20.063Z,2.67
2018-03-04T04:54:49.178Z,2.70
2018-03-04T04:57:18.293Z,2.66
2018-03-04T04:59:47.405Z,2.61
2018-03-04T05:02:17.268Z,2.58
2018-03-04T05:04:46.425Z,2.63
2018-03-04T05:07:15.513Z,2.58
2018-03-04T05:09:44.614Z,2.58
2018-03-04T05:12:13.741Z,2.60
2018-03-04T05:14:42.833Z,2.52
2018-03-04T05:17:11.933Z,2.46
2018-03-04T05:19:41.016Z,2.50
2018-03-04T05:22:10.132Z,2.46
2018-03-04T05:24:39.214Z,2.51
2018-03-04T05:27:08.322Z,2.62
2018-03-04T05:29:37.455Z,2.48
2018-03-04T05:32:06.540Z,2.57
2018-03-04T05:34:35.638Z,2.53
2018-03-04T05:37:04.735Z,2.47
2018-03-04T05:39:33.858Z,2.54
2018-03-04T05:42:02.960Z,2.73
2018-03-04T05:44:32.054Z,2.86
2018-03-04T05:47:01.158Z,2.70
2018-03-04T05:49:31.014Z,2.62
2018-03-04T05:52:00.106Z,2.60
2018-03-04T05:54:29.206Z,2.57
2018-03-04T05:56:58.302Z,2.59
2018-03-04T05:59:27.460Z,2.64
2018-03-04T06:01:56.543Z,2.69
2018-03-04T06:04:25.646Z,2.70
2018-03-04T06:06:55.505Z,2.74
2018-03-04T06:09:24.616Z,2.73
2018-03-04T06:11:53.729Z,2.74
2018-03-04T06:14:22.848Z,2.76
2018-03-04T06:16:52.719Z,2.82
2018-03-04T06:19:21.834Z,2.81
2018-03-04T06:21:50.935Z,2.77
2018-03-04T06:24:20.046Z,2.73
2018-03-04T06:26:49.917Z,2.76
2018-03-04T06:29:19.022Z,2.71
2018-03-04T06:31:48.893Z,2.64
2018-03-04T06:34:17.982Z,2.62
2018-03-04T06:36:47.102Z,2.72
2018-03-04T06:39:16.195Z,2.92
2018-03-04T06:41:45.325Z,3.13
2018-03-04T06:44:14.402Z,3.11
2018-03-04T06:46:44.286Z,3.05
2018-03-04T06:49:14.166Z,3.02
2018-03-04T06:51:43.266Z,3.05
2018-03-04T06:54:12.354Z,3.05
2018-03-04T06:56:41.476Z,2.92
2018-03-04T06:59:11.355Z,2.77
2018-03-04T07:01:40.463Z,2.72
2018-03-04T07:04:09.575Z,2.75
2018-03-04T07:06:38.665Z,2.67
2018-03-04T07:09:07.789Z,2.64
2018-03-04T07:11:37.643Z,2.78
2018-03-04T07:14:06.748Z,2.80
2018-03-04T07:16:35.861Z,2.82
2018-03-04T07:19:04.982Z,2.84
2018-03-04T07:21:34.842Z,2.86
2018-03-04T07:24:03.951Z,2.90
2018-03-04T07:26:33.044Z,2.92
2018-03-04T07:29:03.785Z,3.00
2018-03-04T07:31:32.895Z,2.97
2018-03-04T07:34:02.029Z,2.99
2018-03-04T07:36:31.892Z,3.09
2018-03-04T07:39:00.987Z,3.06
2018-03-04T07:41:30.118Z,3.01
2018-03-04T07:43:59.958Z,3.02
2018-03-04T07:46:29.081Z,3.05
2018-03-04T07:48:58.944Z,3.09
2018-03-04T07:51:28.840Z,3.14
2018-03-04T07:53:57.933Z,3.10
2018-03-04T07:56:27.056Z,3.12
2018-03-04T07:58:56.943Z,3.01
2018-03-04T08:01:26.073Z,3.27
2018-03-04T08:03:55.191Z,3.25
2018-03-04T08:06:24.303Z,3.25
2018-03-04T08:08:53.410Z,3.51
2018-03-04T08:11:22.540Z,3.57
2018-03-04T08:13:52.411Z,3.63
2018-03-04T08:16:21.522Z,3.55
2018-03-04T08:18:50.630Z,3.41
2018-03-04T08:21:19.729Z,3.48
2018-03-04T08:23:48.905Z,3.40
2018-03-04T08:26:35.700Z,3.38
2018-03-04T08:29:05.014Z,3.50
2018-03-04T08:31:34.093Z,3.40
2018-03-04T08:34:03.234Z,3.61
2018-03-04T08:36:32.338Z,3.69
2018-03-04T08:39:02.227Z,3.84
2018-03-04T08:41:31.319Z,3.80
2018-03-04T08:44:00.430Z,3.74
2018-03-04T08:46:29.564Z,3.75
2018-03-04T08:48:59.437Z,3.92
2018-03-04T08:51:28.541Z,4.06
2018-03-04T08:53:57.689Z,4.10
2018-03-04T08:56:27.530Z,4.16
2018-03-04T08:58:56.655Z,4.04
2018-03-04T09:01:26.540Z,4.13
2018-03-04T09:03:55.654Z,4.29
2018-03-04T09:06:24.779Z,4.31
2018-03-04T09:08:54.662Z,4.49
2018-03-04T09:11:23.759Z,4.51
2018-03-04T09:13:52.880Z,4.70
2018-03-04T09:16:22.753Z,4.83
2018-03-04T09:18:51.865Z,5.04
2018-03-04T09:21:20.990Z,5.07
2018-03-04T09:23:50.871Z,5.29
2018-03-04T09:26:20.031Z,5.40
2018-03-04T09:28:49.128Z,5.37
2018-03-04T09:31:18.258Z,5.50
2018-03-04T09:33:48.148Z,5.62
2018-03-04T09:36:17.246Z,5.87
2018-03-04T09:38:46.347Z,6.01
2018-03-04T09:41:15.476Z,6.15
2018-03-04T09:43:44.563Z,6.37
2018-03-04T09:46:13.685Z,6.46
2018-03-04T09:48:43.563Z,6.56
2018-03-04T09:51:12.670Z,6.70
2018-03-04T09:53:41.793Z,6.86
2018-03-04T09:56:11.695Z,7.08
2018-03-04T09:58:40.794Z,7.26
2018-03-04T10:01:09.898Z,7.37
2018-03-04T10:03:39.777Z,7.46
2018-03-04T10:06:08.891Z,7.71
2018-03-04T10:08:38.051Z,7.83
2018-03-04T10:11:07.145Z,7.96
2018-03-04T10:13:37.111Z,8.15
2018-03-04T10:16:06.974Z,8.33
2018-03-04T10:18:36.106Z,8.44
2018-03-04T10:21:05.969Z,8.59
2018-03-04T10:23:35.093Z,8.75
2018-03-04T10:26:04.962Z,8.93
2018-03-04T10:28:34.887Z,9.03
2018-03-04T10:31:03.998Z,9.16
2018-03-04T10:33:33.103Z,9.29
2018-03-04T10:36:02.220Z,9.45
2018-03-04T10:38:31.320Z,9.49
2018-03-04T10:41:00.466Z,9.52
2018-03-04T10:43:29.554Z,9.57
2018-03-04T10:45:59.430Z,9.61
2018-03-04T10:48:28.558Z,9.70
2018-03-04T10:50:58.428Z,9.76
2018-03-04T10:53:27.550Z,9.86
2018-03-04T10:55:56.681Z,9.97
2018-03-04T10:58:26.564Z,10.09
2018-03-04T11:01:10.134Z,10.15
2018-03-04T11:03:39.243Z,10.26
2018-03-04T11:06:08.351Z,10.32
2018-03-04T11:08:37.470Z,10.38
2018-03-04T11:11:06.618Z,10.37
2018-03-04T11:13:35.739Z,10.44
2018-03-04T11:16:04.963Z,10.50
2018-03-04T11:18:34.078Z,10.62
2018-03-04T11:21:03.184Z,10.73
2018-03-04T11:23:37.012Z,10.80
2018-03-04T11:26:06.108Z,10.89
2018-03-04T11:28:35.257Z,11.05
2018-03-04T11:31:04.406Z,11.12
2018-03-04T11:33:33.533Z,11.34
2018-03-04T11:36:02.673Z,11.43
2018-03-04T11:38:32.559Z,11.49
2018-03-04T11:41:02.627Z,11.59
2018-03-04T11:43:31.731Z,11.70
2018-03-04T11:46:00.833Z,11.89
2018-03-04T11:48:29.984Z,11.93
2018-03-04T11:50:59.097Z,11.96
2018-03-04T11:53:28.964Z,12.07
2018-03-04T11:55:58.200Z,12.13
2018-03-04T11:58:27.319Z,12.10
2018-03-04T12:00:56.422Z,12.12
2018-03-04T12:03:25.554Z,12.16
2018-03-04T12:05:54.712Z,12.23
2018-03-04T12:08:24.609Z,12.24
2018-03-04T12:10:53.720Z,12.28
2018-03-04T12:13:22.849Z,12.36
2018-03-04T12:15:51.964Z,12.44
2018-03-04T12:18:21.081Z,12.60
2018-03-04T12:20:50.185Z,12.74
2018-03-04T12:23:20.091Z,13.00
2018-03-04T12:25:49.219Z,13.21
2018-03-04T12:28:18.350Z,13.44
2018-03-04T12:30:47.460Z,13.62
2018-03-04T12:33:16.587Z,13.81
2018-03-04T12:35:45.699Z,13.93
2018-03-04T12:38:14.846Z,13.99
2018-03-04T12:40:43.986Z,14.04
2018-03-04T12:43:13.889Z,14.03
2018-03-04T12:45:43.018Z,14.12
2018-03-04T12:48:12.103Z,14.13
2018-03-04T12:50:41.225Z,14.11
2018-03-04T12:53:10.337Z,14.05
2018-03-04T12:55:39.453Z,14.10
2018-03-04T12:58:08.622Z,14.13
2018-03-04T13:00:37.765Z,14.09
2018-03-04T13:03:07.628Z,14.11
2018-03-04T13:05:36.741Z,14.06
2018-03-04T13:08:06.673Z,14.02
2018-03-04T13:10:36.598Z,14.00
2018-03-04T13:13:05.708Z,14.07
2018-03-04T13:15:35.602Z,14.04
2018-03-04T13:18:05.419Z,14.03
2018-03-04T13:20:34.507Z,14.02
2018-03-04T13:23:03.628Z,13.98
2018-03-04T13:25:33.521Z,13.95
2018-03-04T13:28:02.643Z,13.95
2018-03-04T13:30:31.793Z,13.92
2018-03-04T13:33:00.915Z,13.95
2018-03-04T13:35:30.034Z,14.02
2018-03-04T13:37:59.902Z,14.04
2018-03-04T13:40:29.043Z,14.04
2018-03-04T13:42:58.184Z,14.05
2018-03-04T13:45:28.250Z,14.16
2018-03-04T13:47:58.111Z,14.22
2018-03-04T13:50:27.250Z,14.30
2018-03-04T13:52:56.348Z,14.42
2018-03-04T13:55:26.266Z,14.49
2018-03-04T13:57:55.385Z,14.66
2018-03-04T14:00:25.260Z,14.91
2018-03-04T14:02:54.361Z,14.99
2018-03-04T14:05:23.470Z,15.16
2018-03-04T14:07:52.578Z,15.24
2018-03-04T14:10:22.458Z,15.21
2018-03-04T14:12:51.581Z,15.33
2018-03-04T14:15:21.459Z,15.24
2018-03-04T14:17:50.579Z,15.07
2018-03-04T14:20:19.726Z,14.86
2018-03-04T14:22:48.818Z,14.66
2018-03-04T14:25:17.973Z,14.62
2018-03-04T14:27:47.054Z,14.60
2018-03-04T14:30:16.182Z,14.53
2018-03-04T14:32:46.057Z,14.53
2018-03-04T14:35:15.145Z,14.47
2018-03-04T14:37:44.324Z,14.37
2018-03-04T14:40:14.176Z,14.26
2018-03-04T14:42:43.311Z,14.25
2018-03-04T14:45:13.158Z,14.17
2018-03-04T14:47:42.306Z,14.20
2018-03-04T14:50:12.217Z,14.27
2018-03-04T14:52:48.535Z,14.39
2018-03-04T14:55:17.645Z,14.53
2018-03-04T14:57:46.760Z,14.49
2018-03-04T15:00:15.857Z,14.43
2018-03-04T15:02:45.764Z,14.30
2018-03-04T15:05:14.914Z,14.18
2018-03-04T15:07:44.029Z,14.15
2018-03-04T15:10:13.977Z,14.10
2018-03-04T15:12:43.099Z,14.02
2018-03-04T15:15:12.251Z,13.98
2018-03-04T15:17:41.378Z,13.97
2018-03-04T15:20:10.470Z,13.87
2018-03-04T15:22:40.373Z,13.80
2018-03-04T15:25:09.505Z,13.72
2018-03-04T15:27:39.396Z,13.61
2018-03-04T15:30:10.013Z,13.55
2018-03-04T15:32:39.150Z,13.55
2018-03-04T15:35:08.276Z,13.54
2018-03-04T15:37:37.461Z,13.50
2018-03-04T15:40:06.537Z,13.44
2018-03-04T15:42:36.417Z,13.36
2018-03-04T15:45:05.572Z,13.33
2018-03-04T15:47:34.664Z,13.27
2018-03-04T15:50:03.792Z,13.29
2018-03-04T15:52:33.649Z,13.26
2018-03-04T15:55:02.783Z,13.22
2018-03-04T15:57:31.917Z,13.16
2018-03-04T16:00:01.019Z,13.07
2018-03-04T16:02:30.165Z,13.03
2018-03-04T16:04:59.271Z,13.04
2018-03-04T16:07:28.400Z,13.03
2018-03-04T16:09:57.520Z,13.07
2018-03-04T16:12:27.417Z,13.07
2018-03-04T16:14:56.522Z,13.00
2018-03-04T16:17:25.639Z,13.00
2018-03-04T16:19:55.546Z,12.96
2018-03-04T16:22:25.450Z,12.87
2018-03-04T16:24:54.552Z,12.84
2018-03-04T16:27:24.488Z,12.79
2018-03-04T16:29:53.640Z,12.73
2018-03-04T16:32:22.795Z,12.65
2018-03-04T16:34:51.908Z,12.64
2018-03-04T16:37:21.017Z,12.61
2018-03-04T16:39:50.137Z,12.54
2018-03-04T16:42:20.056Z,12.43
2018-03-04T16:44:49.202Z,12.35
2018-03-04T16:47:18.321Z,12.31
2018-03-04T16:49:47.445Z,12.28
2018-03-04T16:52:17.343Z,12.26
2018-03-04T16:54:46.469Z,12.25
2018-03-04T16:57:16.362Z,12.19
2018-03-04T16:59:47.010Z,12.15
2018-03-04T17:02:16.884Z,12.10
2018-03-04T17:04:46.008Z,12.07
2018-03-04T17:07:15.156Z,12.04
2018-03-04T17:09:44.275Z,12.04
2018-03-04T17:12:13.379Z,11.99
2018-03-04T17:14:42.519Z,11.96
2018-03-04T17:17:12.423Z,11.92
2018-03-04T17:19:42.327Z,11.90
2018-03-04T17:22:12.239Z,11.83
2018-03-04T17:24:41.347Z,11.79
2018-03-04T17:27:11.227Z,11.80
2018-03-04T17:29:40.346Z,11.68
2018-03-04T17:32:09.475Z,11.64
2018-03-04T17:34:38.588Z,11.57
2018-03-04T17:37:07.733Z,11.52
2018-03-04T17:39:36.836Z,11.45
2018-03-04T17:42:05.957Z,11.45
2018-03-04T17:44:35.820Z,11.48
2018-03-04T17:47:04.942Z,11.50
2018-03-04T17:49:34.076Z,11.44
2018-03-04T17:52:03.183Z,11.36
2018-03-04T17:54:32.309Z,11.32
2018-03-04T17:57:01.415Z,11.24
2018-03-04T17:59:30.560Z,11.17
2018-03-04T18:01:59.700Z,11.08
2018-03-04T18:04:28.839Z,11.03
2018-03-04T18:06:57.981Z,10.93
2018-03-04T18:09:27.148Z,10.94
2018-03-04T18:11:56.258Z,10.94
2018-03-04T18:14:25.408Z,10.92
2018-03-04T18:16:54.499Z,10.90
2018-03-04T18:19:24.406Z,10.91
2018-03-04T18:21:53.525Z,10.93
2018-03-04T18:24:23.413Z,10.95
2018-03-04T18:26:52.555Z,10.90
2018-03-04T18:29:21.687Z,10.94
2018-03-04T18:31:50.793Z,10.89
2018-03-04T18:34:20.729Z,10.82
2018-03-04T18:36:49.857Z,10.79
2018-03-04T18:39:18.976Z,10.80
2018-03-04T18:41:48.067Z,10.91
2018-03-04T18:44:17.225Z,10.83
2018-03-04T18:46:46.300Z,10.74
2018-03-04T18:49:15.403Z,10.80
2018-03-04T18:51:44.523Z,10.67
2018-03-04T18:54:14.385Z,10.74
2018-03-04T18:56:43.544Z,10.75
2018-03-04T18:59:13.423Z,10.71
2018-03-04T19:01:43.315Z,10.72
2018-03-04T19:04:12.426Z,10.63
2018-03-04T19:06:41.552Z,10.56
2018-03-04T19:09:11.425Z,10.48
2018-03-04T19:11:41.315Z,10.41
2018-03-04T19:14:10.419Z,10.41
2018-03-04T19:16:39.547Z,10.39
2018-03-04T19:19:08.676Z,10.33
2018-03-04T19:21:38.573Z,10.27
2018-03-04T19:24:07.696Z,10.33
2018-03-04T19:26:37.539Z,10.32
2018-03-04T19:29:06.688Z,10.20
2018-03-04T19:31:36.577Z,10.22
2018-03-04T19:34:05.744Z,10.25
2018-03-04T19:36:34.840Z,10.22
2018-03-04T19:39:04.000Z,10.46
2018-03-04T19:41:33.880Z,10.49
2018-03-04T19:44:03.033Z,10.59
2018-03-04T19:46:32.195Z,10.59
2018-03-04T19:49:01.309Z,10.58
2018-03-04T19:51:31.207Z,10.44
2018-03-04T19:54:00.328Z,10.29
2018-03-04T19:56:29.457Z,10.34
2018-03-04T19:58:58.575Z,10.29
2018-03-04T20:01:27.691Z,10.21
2018-03-04T20:03:56.810Z,10.22
2018-03-04T20:06:26.706Z,10.21
2018-03-04T20:08:55.842Z,10.06
2018-03-04T20:11:24.995Z,10.00
2018-03-04T20:13:54.076Z,9.97
2018-03-04T20:16:24.707Z,10.02
2018-03-04T20:18:53.820Z,9.96
2018-03-04T20:21:23.015Z,9.94
2018-03-04T20:23:52.137Z,9.87
2018-03-04T20:26:22.069Z,9.95
2018-03-04T20:28:51.947Z,9.86
2018-03-04T20:31:21.847Z,9.74
2018-03-04T20:33:50.967Z,9.64
2018-03-04T20:36:20.890Z,9.47
2018-03-04T20:38:50.766Z,9.27
2018-03-04T20:41:19.902Z,9.09
2018-03-04T20:43:49.776Z,8.97
2018-03-04T20:46:18.934Z,8.93
2018-03-04T20:48:48.027Z,8.91
2018-03-04T20:51:17.153Z,8.85
2018-03-04T20:53:46.299Z,8.81
2018-03-04T20:56:16.213Z,8.81
2018-03-04T20:58:46.396Z,8.85
2018-03-04T21:01:16.314Z,8.80
2018-03-04T21:03:45.455Z,8.73
2018-03-04T21:06:15.327Z,8.80
2018-03-04T21:08:44.423Z,8.85
2018-03-04T21:11:13.566Z,8.82
2018-03-04T21:13:42.748Z,8.79
2018-03-04T21:16:12.670Z,8.71
2018-03-04T21:18:42.572Z,8.62
2018-03-04T21:21:12.455Z,8.52
2018-03-04T21:23:41.560Z,8.52
2018-03-04T21:26:10.698Z,8.57
2018-03-04T21:28:39.789Z,8.55
2018-03-04T21:31:08.903Z,8.48
2018-03-04T21:33:38.042Z,8.48
2018-03-04T21:36:07.132Z,8.45
2018-03-04T21:38:36.280Z,8.37
2018-03-04T21:41:05.407Z,8.34
2018-03-04T21:43:34.533Z,8.33
2018-03-04T21:46:03.622Z,8.23
2018-03-04T21:48:32.750Z,8.23
2018-03-04T21:51:02.032Z,8.12
2018-03-04T21:53:31.164Z,8.13
2018-03-04T21:56:01.019Z,8.10
2018-03-04T21:58:30.866Z,8.10
2018-03-04T22:01:00.757Z,8.05
2018-03-04T22:03:29.862Z,8.01
2018-03-04T22:05:58.974Z,8.03
2018-03-04T22:08:28.837Z,7.96
2018-03-04T22:10:57.953Z,7.98
2018-03-04T22:13:27.047Z,7.97
2018-03-04T22:15:56.158Z,8.00
2018-03-04T22:18:25.255Z,8.02
2018-03-04T22:20:55.911Z,8.03
2018-03-04T22:23:24.993Z,7.99
2018-03-04T22:25:54.869Z,8.04
2018-03-04T22:28:23.962Z,8.05
2018-03-04T22:30:53.086Z,8.11
2018-03-04T22:33:22.176Z,8.15
2018-03-04T22:35:51.283Z,8.19
2018-03-04T22:38:20.388Z,8.15
2018-03-04T22:40:49.505Z,8.18
2018-03-04T22:43:19.351Z,8.16
2018-03-04T22:45:48.487Z,8.19
2018-03-04T22:48:17.600Z,8.16
2018-03-04T22:50:47.448Z,8.13
2018-03-04T22:53:16.558Z,8.14
2018-03-04T22:55:45.678Z,8.11
2018-03-04T22:58:14.778Z,8.07
2018-03-04T23:00:43.922Z,8.10
2018-03-04T23:03:13.043Z,8.02
2018-03-04T23:05:43.057Z,8.00
2018-03-04T23:08:12.187Z,7.99
2018-03-04T23:10:42.054Z,7.96
2018-03-04T23:13:11.146Z,7.94
2018-03-04T23:15:41.016Z,7.89
2018-03-04T23:18:10.118Z,7.90
2018-03-04T23:20:39.220Z,7.88
2018-03-04T23:23:08.300Z,7.85
2018-03-04T23:25:37.416Z,7.83
2018-03-04T23:28:07.100Z,7.81
2018-03-04T23:30:36.227Z,7.78
2018-03-04T23:33:06.136Z,7.72
2018-03-04T23:35:35.232Z,7.65
2018-03-04T23:38:05.084Z,7.61
2018-03-04T23:40:34.194Z,7.57
2018-03-04T23:43:04.053Z,7.59
2018-03-04T23:45:33.147Z,7.60
2018-03-04T23:48:02.989Z,7.62
2018-03-04T23:50:32.104Z,7.62
2018-03-04T23:53:01.194Z,7.66
2018-03-04T23:55:30.287Z,7.65
2018-03-04T23:57:59.415Z,7.63
